sensor_id;sensor_type;location;lat;lon;timestamp;noise_LAeq;noise_LA_min;noise_LA_max;noise_LA01;noise_LA95
73638;Laerm;53743;51.100;5.874;2022-08-05T00:00:30;31.52;29.52;36.66;;
73638;Laerm;53743;51.100;5.874;2022-08-05T00:01:32;31.32;29.71;36.23;;
73638;Laerm;53743;51.100;5.874;2022-08-05T00:02:32;31.97;29.70;52.40;;
73638;Laerm;53743;51.100;5.874;2022-08-05T00:03:33;30.82;29.13;35.53;;
73638;Laerm;53743;51.100;5.874;2022-08-05T00:04:34;31.01;29.28;38.23;;
73638;Laerm;53743;51.100;5.874;2022-08-05T00:05:35;30.77;28.77;39.47;;
73638;Laerm;53743;51.100;5.874;2022-08-05T00:06:35;31.94;29.48;36.83;;
73638;Laerm;53743;51.100;5.874;2022-08-05T00:07:36;31.25;29.50;37.98;;
73638;Laerm;53743;51.100;5.874;2022-08-05T00:08:38;31.72;29.49;36.90;;
73638;Laerm;53743;51.100;5.874;2022-08-05T00:09:39;31.06;29.30;35.16;;
73638;Laerm;53743;51.100;5.874;2022-08-05T00:10:40;31.12;28.94;36.17;;
73638;Laerm;53743;51.100;5.874;2022-08-05T00:11:40;31.24;28.90;33.52;;
73638;Laerm;53743;51.100;5.874;2022-08-05T00:12:41;31.09;29.00;36.76;;
73638;Laerm;53743;51.100;5.874;2022-08-05T00:13:43;31.43;29.28;36.98;;
73638;Laerm;53743;51.100;5.874;2022-08-05T00:14:44;54.24;29.66;68.89;;
73638;Laerm;53743;51.100;5.874;2022-08-05T00:15:45;31.45;29.36;35.61;;
73638;Laerm;53743;51.100;5.874;2022-08-05T00:16:46;31.36;29.36;35.34;;
73638;Laerm;53743;51.100;5.874;2022-08-05T00:17:47;31.02;29.22;33.30;;
73638;Laerm;53743;51.100;5.874;2022-08-05T00:18:48;31.22;29.24;34.18;;
73638;Laerm;53743;51.100;5.874;2022-08-05T00:19:49;56.23;29.58;71.28;;
73638;Laerm;53743;51.100;5.874;2022-08-05T00:20:50;51.86;29.24;68.45;;
73638;Laerm;53743;51.100;5.874;2022-08-05T00:21:51;45.41;29.81;63.91;;
73638;Laerm;53743;51.100;5.874;2022-08-05T00:22:52;56.91;29.33;70.88;;
73638;Laerm;53743;51.100;5.874;2022-08-05T00:23:53;42.05;30.02;58.23;;
73638;Laerm;53743;51.100;5.874;2022-08-05T00:24:53;52.16;29.76;66.54;;
73638;Laerm;53743;51.100;5.874;2022-08-05T00:25:54;31.62;28.80;35.83;;
73638;Laerm;53743;51.100;5.874;2022-08-05T00:26:55;31.03;29.10;41.36;;
73638;Laerm;53743;51.100;5.874;2022-08-05T00:27:55;31.34;29.22;34.41;;
73638;Laerm;53743;51.100;5.874;2022-08-05T00:28:56;31.86;29.68;36.10;;
73638;Laerm;53743;51.100;5.874;2022-08-05T00:29:57;31.75;29.71;37.61;;
73638;Laerm;53743;51.100;5.874;2022-08-05T00:30:57;34.48;31.35;40.83;;
73638;Laerm;53743;51.100;5.874;2022-08-05T00:31:58;33.57;30.80;39.07;;
73638;Laerm;53743;51.100;5.874;2022-08-05T00:32:59;54.81;30.59;70.27;;
73638;Laerm;53743;51.100;5.874;2022-08-05T00:33:59;32.08;29.28;37.56;;
73638;Laerm;53743;51.100;5.874;2022-08-05T00:35:00;30.56;28.26;35.70;;
73638;Laerm;53743;51.100;5.874;2022-08-05T00:36:01;31.45;28.90;38.12;;
73638;Laerm;53743;51.100;5.874;2022-08-05T00:37:01;31.70;29.15;37.43;;
73638;Laerm;53743;51.100;5.874;2022-08-05T00:38:02;34.21;30.45;38.66;;
73638;Laerm;53743;51.100;5.874;2022-08-05T00:39:03;32.32;29.92;38.61;;
73638;Laerm;53743;51.100;5.874;2022-08-05T00:40:04;31.44;29.14;34.03;;
73638;Laerm;53743;51.100;5.874;2022-08-05T00:41:05;55.70;29.72;71.02;;
73638;Laerm;53743;51.100;5.874;2022-08-05T00:42:07;32.87;29.14;41.57;;
73638;Laerm;53743;51.100;5.874;2022-08-05T00:43:07;31.23;29.10;33.66;;
73638;Laerm;53743;51.100;5.874;2022-08-05T00:44:08;30.83;28.90;33.69;;
73638;Laerm;53743;51.100;5.874;2022-08-05T00:45:09;54.95;29.37;71.21;;
73638;Laerm;53743;51.100;5.874;2022-08-05T00:46:10;30.75;28.85;38.05;;
73638;Laerm;53743;51.100;5.874;2022-08-05T00:47:11;30.88;28.54;35.56;;
73638;Laerm;53743;51.100;5.874;2022-08-05T00:48:18;30.74;28.80;34.02;;
73638;Laerm;53743;51.100;5.874;2022-08-05T00:49:19;52.94;29.26;67.77;;
73638;Laerm;53743;51.100;5.874;2022-08-05T00:50:20;43.40;29.42;60.04;;
73638;Laerm;53743;51.100;5.874;2022-08-05T00:51:21;30.71;28.67;36.12;;
73638;Laerm;53743;51.100;5.874;2022-08-05T00:52:22;31.02;28.67;34.55;;
73638;Laerm;53743;51.100;5.874;2022-08-05T00:53:23;55.66;28.91;71.50;;
73638;Laerm;53743;51.100;5.874;2022-08-05T00:54:24;30.91;29.04;34.51;;
73638;Laerm;53743;51.100;5.874;2022-08-05T00:55:25;59.33;29.50;77.20;;
73638;Laerm;53743;51.100;5.874;2022-08-05T00:56:25;56.07;29.40;70.99;;
73638;Laerm;53743;51.100;5.874;2022-08-05T00:57:26;38.15;30.01;50.19;;
73638;Laerm;53743;51.100;5.874;2022-08-05T00:58:27;31.16;29.05;34.73;;
73638;Laerm;53743;51.100;5.874;2022-08-05T00:59:27;30.85;28.98;37.14;;
73638;Laerm;53743;51.100;5.874;2022-08-05T01:00:29;55.40;29.36;70.21;;
73638;Laerm;53743;51.100;5.874;2022-08-05T01:01:30;31.14;29.22;44.69;;
73638;Laerm;53743;51.100;5.874;2022-08-05T01:02:31;30.98;28.89;33.55;;
73638;Laerm;53743;51.100;5.874;2022-08-05T01:03:32;57.73;29.60;70.44;;
73638;Laerm;53743;51.100;5.874;2022-08-05T01:04:32;34.26;29.31;44.74;;
73638;Laerm;53743;51.100;5.874;2022-08-05T01:05:34;30.90;28.84;35.08;;
73638;Laerm;53743;51.100;5.874;2022-08-05T01:06:34;30.83;28.81;33.30;;
73638;Laerm;53743;51.100;5.874;2022-08-05T01:07:35;31.17;29.21;34.87;;
73638;Laerm;53743;51.100;5.874;2022-08-05T01:08:36;31.38;29.44;33.79;;
73638;Laerm;53743;51.100;5.874;2022-08-05T01:09:36;31.31;29.40;35.96;;
73638;Laerm;53743;51.100;5.874;2022-08-05T01:10:46;30.74;28.68;33.70;;
73638;Laerm;53743;51.100;5.874;2022-08-05T01:11:52;32.35;29.14;44.19;;
73638;Laerm;53743;51.100;5.874;2022-08-05T01:13:05;31.25;29.29;36.22;;
73638;Laerm;53743;51.100;5.874;2022-08-05T01:14:13;31.98;29.00;35.41;;
73638;Laerm;53743;51.100;5.874;2022-08-05T01:15:25;38.32;29.14;57.34;;
73638;Laerm;53743;51.100;5.874;2022-08-05T01:16:46;54.99;30.14;71.71;;
73638;Laerm;53743;51.100;5.874;2022-08-05T01:18:00;34.07;29.28;46.21;;
73638;Laerm;53743;51.100;5.874;2022-08-05T01:19:23;31.14;28.80;40.34;;
73638;Laerm;53743;51.100;5.874;2022-08-05T01:20:48;51.80;28.35;74.10;;
73638;Laerm;53743;51.100;5.874;2022-08-05T01:22:16;32.51;29.10;41.44;;
73638;Laerm;53743;51.100;5.874;2022-08-05T01:26:54;51.86;29.45;75.24;;
73638;Laerm;53743;51.100;5.874;2022-08-05T01:29:37;34.92;28.90;47.19;;
73638;Laerm;53743;51.100;5.874;2022-08-05T01:30:52;55.37;30.54;74.85;;
73638;Laerm;53743;51.100;5.874;2022-08-05T01:32:02;46.75;30.42;69.52;;
73638;Laerm;53743;51.100;5.874;2022-08-05T01:33:08;50.17;43.98;67.66;;
73638;Laerm;53743;51.100;5.874;2022-08-05T01:34:19;44.48;35.37;61.37;;
73638;Laerm;53743;51.100;5.874;2022-08-05T01:35:27;58.93;39.94;73.99;;
73638;Laerm;53743;51.100;5.874;2022-08-05T01:36:38;53.07;40.25;68.70;;
73638;Laerm;53743;51.100;5.874;2022-08-05T01:37:48;41.64;34.85;64.17;;
73638;Laerm;53743;51.100;5.874;2022-08-05T01:38:52;37.29;32.55;54.39;;
73638;Laerm;53743;51.100;5.874;2022-08-05T01:39:56;40.01;33.39;58.86;;
73638;Laerm;53743;51.100;5.874;2022-08-05T01:40:59;55.05;33.28;69.54;;
73638;Laerm;53743;51.100;5.874;2022-08-05T01:42:04;35.61;31.61;55.81;;
73638;Laerm;53743;51.100;5.874;2022-08-05T01:43:08;45.52;31.61;64.38;;
73638;Laerm;53743;51.100;5.874;2022-08-05T01:44:13;46.71;35.97;65.05;;
73638;Laerm;53743;51.100;5.874;2022-08-05T01:45:17;54.44;39.50;68.71;;
73638;Laerm;53743;51.100;5.874;2022-08-05T01:46:23;43.92;38.68;64.80;;
73638;Laerm;53743;51.100;5.874;2022-08-05T01:47:28;44.63;39.73;61.74;;
73638;Laerm;53743;51.100;5.874;2022-08-05T01:48:35;44.66;40.13;62.21;;
73638;Laerm;53743;51.100;5.874;2022-08-05T01:49:40;56.24;40.16;71.65;;
73638;Laerm;53743;51.100;5.874;2022-08-05T01:50:42;46.56;41.17;59.82;;
73638;Laerm;53743;51.100;5.874;2022-08-05T01:51:45;43.04;37.86;61.21;;
73638;Laerm;53743;51.100;5.874;2022-08-05T01:52:49;58.15;39.49;72.75;;
73638;Laerm;53743;51.100;5.874;2022-08-05T01:53:54;43.85;39.58;58.44;;
73638;Laerm;53743;51.100;5.874;2022-08-05T01:55:01;45.74;40.42;63.18;;
73638;Laerm;53743;51.100;5.874;2022-08-05T01:56:04;44.80;39.87;60.59;;
73638;Laerm;53743;51.100;5.874;2022-08-05T01:57:09;63.26;38.16;80.02;;
73638;Laerm;53743;51.100;5.874;2022-08-05T01:58:13;40.50;36.15;58.24;;
73638;Laerm;53743;51.100;5.874;2022-08-05T01:59:19;39.85;36.03;59.11;;
73638;Laerm;53743;51.100;5.874;2022-08-05T02:00:23;39.76;35.67;55.14;;
73638;Laerm;53743;51.100;5.874;2022-08-05T02:01:26;37.35;32.67;57.42;;
73638;Laerm;53743;51.100;5.874;2022-08-05T02:02:31;35.53;32.15;55.51;;
73638;Laerm;53743;51.100;5.874;2022-08-05T02:03:43;34.85;31.73;57.91;;
73638;Laerm;53743;51.100;5.874;2022-08-05T02:04:47;34.67;31.81;51.14;;
73638;Laerm;53743;51.100;5.874;2022-08-05T02:05:52;55.22;31.82;70.57;;
73638;Laerm;53743;51.100;5.874;2022-08-05T02:06:55;50.27;32.15;67.50;;
73638;Laerm;53743;51.100;5.874;2022-08-05T02:07:58;37.02;32.70;61.06;;
73638;Laerm;53743;51.100;5.874;2022-08-05T02:08:59;37.55;33.23;54.47;;
73638;Laerm;53743;51.100;5.874;2022-08-05T02:10:03;40.26;35.37;54.77;;
73638;Laerm;53743;51.100;5.874;2022-08-05T02:11:09;43.17;34.86;65.08;;
73638;Laerm;53743;51.100;5.874;2022-08-05T02:12:21;46.76;41.18;62.81;;
73638;Laerm;53743;51.100;5.874;2022-08-05T02:13:40;46.21;39.43;67.52;;
73638;Laerm;53743;51.100;5.874;2022-08-05T02:15:00;43.25;37.39;60.63;;
73638;Laerm;53743;51.100;5.874;2022-08-05T02:16:17;40.55;35.25;56.39;;
73638;Laerm;53743;51.100;5.874;2022-08-05T02:17:33;54.13;32.81;69.84;;
73638;Laerm;53743;51.100;5.874;2022-08-05T02:18:44;35.09;32.31;56.87;;
73638;Laerm;53743;51.100;5.874;2022-08-05T02:19:54;57.05;31.01;72.46;;
73638;Laerm;53743;51.100;5.874;2022-08-05T02:21:16;36.88;30.06;50.73;;
73638;Laerm;53743;51.100;5.874;2022-08-05T02:22:26;32.42;29.75;49.99;;
73638;Laerm;53743;51.100;5.874;2022-08-05T02:23:34;32.09;29.81;44.76;;
73638;Laerm;53743;51.100;5.874;2022-08-05T02:24:40;32.14;29.72;43.17;;
73638;Laerm;53743;51.100;5.874;2022-08-05T02:25:44;35.11;30.88;46.47;;
73638;Laerm;53743;51.100;5.874;2022-08-05T02:26:55;32.26;30.01;41.47;;
73638;Laerm;53743;51.100;5.874;2022-08-05T02:28:00;32.14;30.27;41.19;;
73638;Laerm;53743;51.100;5.874;2022-08-05T02:29:02;32.03;29.50;41.12;;
73638;Laerm;53743;51.100;5.874;2022-08-05T02:30:08;32.54;29.89;48.58;;
73638;Laerm;53743;51.100;5.874;2022-08-05T02:31:26;32.52;30.18;39.71;;
73638;Laerm;53743;51.100;5.874;2022-08-05T02:32:30;31.70;29.34;39.64;;
73638;Laerm;53743;51.100;5.874;2022-08-05T02:33:40;49.73;29.90;68.14;;
73638;Laerm;53743;51.100;5.874;2022-08-05T02:34:44;54.79;30.03;70.14;;
73638;Laerm;53743;51.100;5.874;2022-08-05T02:35:45;55.25;29.92;70.42;;
73638;Laerm;53743;51.100;5.874;2022-08-05T02:36:59;35.24;30.64;42.63;;
73638;Laerm;53743;51.100;5.874;2022-08-05T02:38:05;33.91;29.92;42.30;;
73638;Laerm;53743;51.100;5.874;2022-08-05T02:39:08;58.66;30.15;72.41;;
73638;Laerm;53743;51.100;5.874;2022-08-05T02:40:17;31.83;29.73;46.29;;
73638;Laerm;53743;51.100;5.874;2022-08-05T02:41:21;31.47;29.60;36.50;;
73638;Laerm;53743;51.100;5.874;2022-08-05T02:42:23;32.18;29.82;41.31;;
73638;Laerm;53743;51.100;5.874;2022-08-05T02:43:27;32.43;30.36;37.51;;
73638;Laerm;53743;51.100;5.874;2022-08-05T02:44:36;32.22;29.57;44.41;;
73638;Laerm;53743;51.100;5.874;2022-08-05T02:45:40;55.43;29.77;70.65;;
73638;Laerm;53743;51.100;5.874;2022-08-05T02:46:46;54.75;29.55;71.88;;
73638;Laerm;53743;51.100;5.874;2022-08-05T02:47:50;31.42;29.28;38.36;;
73638;Laerm;53743;51.100;5.874;2022-08-05T02:48:54;32.12;30.06;36.90;;
73638;Laerm;53743;51.100;5.874;2022-08-05T02:49:56;31.87;29.64;38.24;;
73638;Laerm;53743;51.100;5.874;2022-08-05T02:51:00;58.63;30.03;73.91;;
73638;Laerm;53743;51.100;5.874;2022-08-05T02:52:08;31.05;29.10;46.90;;
73638;Laerm;53743;51.100;5.874;2022-08-05T02:53:11;31.31;29.49;36.64;;
73638;Laerm;53743;51.100;5.874;2022-08-05T02:54:15;31.64;29.46;37.92;;
73638;Laerm;53743;51.100;5.874;2022-08-05T02:55:16;32.20;29.92;42.32;;
73638;Laerm;53743;51.100;5.874;2022-08-05T02:56:18;31.29;29.53;39.43;;
73638;Laerm;53743;51.100;5.874;2022-08-05T02:57:23;31.58;29.65;37.05;;
73638;Laerm;53743;51.100;5.874;2022-08-05T02:58:25;32.07;30.03;39.84;;
73638;Laerm;53743;51.100;5.874;2022-08-05T02:59:28;31.99;30.04;35.68;;
73638;Laerm;53743;51.100;5.874;2022-08-05T03:00:29;33.85;30.66;41.23;;
73638;Laerm;53743;51.100;5.874;2022-08-05T03:01:34;62.58;30.68;78.35;;
73638;Laerm;53743;51.100;5.874;2022-08-05T03:02:39;43.23;29.77;59.94;;
73638;Laerm;53743;51.100;5.874;2022-08-05T03:03:42;58.85;31.25;73.00;;
73638;Laerm;53743;51.100;5.874;2022-08-05T03:04:45;33.92;30.91;39.49;;
73638;Laerm;53743;51.100;5.874;2022-08-05T03:05:49;32.85;30.71;35.62;;
73638;Laerm;53743;51.100;5.874;2022-08-05T03:06:51;35.51;31.21;45.30;;
73638;Laerm;53743;51.100;5.874;2022-08-05T03:07:53;39.18;33.37;48.86;;
73638;Laerm;53743;51.100;5.874;2022-08-05T03:08:54;52.06;31.19;67.03;;
73638;Laerm;53743;51.100;5.874;2022-08-05T03:09:55;32.64;30.09;36.49;;
73638;Laerm;53743;51.100;5.874;2022-08-05T03:10:57;32.49;30.01;39.07;;
73638;Laerm;53743;51.100;5.874;2022-08-05T03:11:57;32.32;30.14;35.01;;
73638;Laerm;53743;51.100;5.874;2022-08-05T03:12:58;55.91;30.16;70.66;;
73638;Laerm;53743;51.100;5.874;2022-08-05T03:13:59;31.78;29.72;35.59;;
73638;Laerm;53743;51.100;5.874;2022-08-05T03:15:00;32.42;30.30;35.76;;
73638;Laerm;53743;51.100;5.874;2022-08-05T03:16:00;32.41;30.26;35.83;;
73638;Laerm;53743;51.100;5.874;2022-08-05T03:17:01;32.47;30.63;36.35;;
73638;Laerm;53743;51.100;5.874;2022-08-05T03:18:02;32.41;30.45;40.30;;
73638;Laerm;53743;51.100;5.874;2022-08-05T03:19:04;32.46;30.17;42.69;;
73638;Laerm;53743;51.100;5.874;2022-08-05T03:20:05;32.04;29.95;36.57;;
73638;Laerm;53743;51.100;5.874;2022-08-05T03:21:06;31.74;29.70;44.70;;
73638;Laerm;53743;51.100;5.874;2022-08-05T03:22:07;58.26;30.20;72.77;;
73638;Laerm;53743;51.100;5.874;2022-08-05T03:23:09;58.09;31.54;75.97;;
73638;Laerm;53743;51.100;5.874;2022-08-05T03:24:12;59.03;32.63;71.74;;
73638;Laerm;53743;51.100;5.874;2022-08-05T03:25:13;33.95;30.18;46.42;;
73638;Laerm;53743;51.100;5.874;2022-08-05T03:26:14;34.47;29.73;57.05;;
73638;Laerm;53743;51.100;5.874;2022-08-05T03:27:16;56.75;30.91;71.47;;
73638;Laerm;53743;51.100;5.874;2022-08-05T03:28:17;53.16;30.74;67.81;;
73638;Laerm;53743;51.100;5.874;2022-08-05T03:29:19;54.26;30.96;66.12;;
73638;Laerm;53743;51.100;5.874;2022-08-05T03:30:20;32.77;30.37;37.16;;
73638;Laerm;53743;51.100;5.874;2022-08-05T03:31:24;59.71;29.90;76.04;;
73638;Laerm;53743;51.100;5.874;2022-08-05T03:32:26;32.02;29.66;39.35;;
73638;Laerm;53743;51.100;5.874;2022-08-05T03:33:28;31.72;29.48;38.03;;
73638;Laerm;53743;51.100;5.874;2022-08-05T03:34:29;31.87;29.58;35.68;;
73638;Laerm;53743;51.100;5.874;2022-08-05T03:35:30;55.98;29.91;73.12;;
73638;Laerm;53743;51.100;5.874;2022-08-05T03:36:32;43.87;30.50;59.08;;
73638;Laerm;53743;51.100;5.874;2022-08-05T03:37:33;32.96;30.87;39.07;;
73638;Laerm;53743;51.100;5.874;2022-08-05T03:38:39;52.03;30.90;66.32;;
73638;Laerm;53743;51.100;5.874;2022-08-05T03:39:58;33.70;30.33;47.54;;
73638;Laerm;53743;51.100;5.874;2022-08-05T03:40:59;53.61;30.76;69.08;;
73638;Laerm;53743;51.100;5.874;2022-08-05T03:42:00;56.05;30.47;71.03;;
73638;Laerm;53743;51.100;5.874;2022-08-05T03:43:01;55.92;30.85;71.16;;
73638;Laerm;53743;51.100;5.874;2022-08-05T03:44:02;32.07;29.75;37.33;;
73638;Laerm;53743;51.100;5.874;2022-08-05T03:45:03;32.32;30.40;37.47;;
73638;Laerm;53743;51.100;5.874;2022-08-05T03:46:04;36.72;30.65;44.37;;
73638;Laerm;53743;51.100;5.874;2022-08-05T03:47:05;61.69;31.46;75.50;;
73638;Laerm;53743;51.100;5.874;2022-08-05T03:48:06;62.10;36.83;75.96;;
73638;Laerm;53743;51.100;5.874;2022-08-05T03:49:06;59.92;32.73;73.57;;
73638;Laerm;53743;51.100;5.874;2022-08-05T03:50:07;60.66;30.88;74.51;;
73638;Laerm;53743;51.100;5.874;2022-08-05T03:51:27;62.72;37.77;78.18;;
73638;Laerm;53743;51.100;5.874;2022-08-05T03:52:35;60.51;30.97;77.63;;
73638;Laerm;53743;51.100;5.874;2022-08-05T03:53:53;31.69;29.74;38.45;;
73638;Laerm;53743;51.100;5.874;2022-08-05T03:55:05;59.27;30.33;73.41;;
73638;Laerm;53743;51.100;5.874;2022-08-05T03:56:29;58.84;30.95;72.98;;
73638;Laerm;53743;51.100;5.874;2022-08-05T03:57:33;40.29;29.48;54.96;;
73638;Laerm;53743;51.100;5.874;2022-08-05T03:58:37;54.21;29.52;73.00;;
73638;Laerm;53743;51.100;5.874;2022-08-05T03:59:47;50.90;29.68;65.24;;
73638;Laerm;53743;51.100;5.874;2022-08-05T04:00:52;59.36;29.96;75.14;;
73638;Laerm;53743;51.100;5.874;2022-08-05T04:01:57;45.07;29.27;58.59;;
73638;Laerm;53743;51.100;5.874;2022-08-05T04:03:03;49.39;29.88;63.61;;
73638;Laerm;53743;51.100;5.874;2022-08-05T04:04:09;57.27;31.65;71.05;;
73638;Laerm;53743;51.100;5.874;2022-08-05T04:05:11;54.98;29.80;70.87;;
73638;Laerm;53743;51.100;5.874;2022-08-05T04:06:14;56.74;29.65;75.15;;
73638;Laerm;53743;51.100;5.874;2022-08-05T04:07:17;36.12;29.78;46.32;;
73638;Laerm;53743;51.100;5.874;2022-08-05T04:08:18;53.29;29.66;67.53;;
73638;Laerm;53743;51.100;5.874;2022-08-05T04:09:20;60.00;31.16;74.84;;
73638;Laerm;53743;51.100;5.874;2022-08-05T04:10:21;56.27;30.89;72.06;;
73638;Laerm;53743;51.100;5.874;2022-08-05T04:11:23;54.05;30.82;68.11;;
73638;Laerm;53743;51.100;5.874;2022-08-05T04:12:25;59.52;30.37;74.40;;
73638;Laerm;53743;51.100;5.874;2022-08-05T04:13:26;35.15;30.33;45.50;;
73638;Laerm;53743;51.100;5.874;2022-08-05T04:14:27;39.62;30.14;56.18;;
73638;Laerm;53743;51.100;5.874;2022-08-05T04:15:29;60.87;30.64;71.86;;
73638;Laerm;53743;51.100;5.874;2022-08-05T04:16:34;37.63;30.45;53.84;;
73638;Laerm;53743;51.100;5.874;2022-08-05T04:17:35;37.15;30.86;53.04;;
73638;Laerm;53743;51.100;5.874;2022-08-05T04:18:37;61.51;40.45;72.94;;
73638;Laerm;53743;51.100;5.874;2022-08-05T04:19:45;58.62;31.64;75.38;;
73638;Laerm;53743;51.100;5.874;2022-08-05T04:20:55;62.05;38.79;74.77;;
73638;Laerm;53743;51.100;5.874;2022-08-05T04:21:57;63.06;36.26;75.81;;
73638;Laerm;53743;51.100;5.874;2022-08-05T04:22:57;61.73;34.04;74.35;;
73638;Laerm;53743;51.100;5.874;2022-08-05T04:23:58;62.25;40.74;76.07;;
73638;Laerm;53743;51.100;5.874;2022-08-05T04:24:59;56.77;32.57;75.41;;
73638;Laerm;53743;51.100;5.874;2022-08-05T04:25:59;52.66;32.49;67.08;;
73638;Laerm;53743;51.100;5.874;2022-08-05T04:27:00;56.09;31.77;68.63;;
73638;Laerm;53743;51.100;5.874;2022-08-05T04:28:01;53.99;31.79;67.20;;
73638;Laerm;53743;51.100;5.874;2022-08-05T04:29:02;60.64;35.18;73.27;;
73638;Laerm;53743;51.100;5.874;2022-08-05T04:30:05;64.61;34.76;80.18;;
73638;Laerm;53743;51.100;5.874;2022-08-05T04:31:06;61.57;40.92;73.22;;
73638;Laerm;53743;51.100;5.874;2022-08-05T04:32:08;63.40;37.17;75.57;;
73638;Laerm;53743;51.100;5.874;2022-08-05T04:33:09;58.10;34.50;72.66;;
73638;Laerm;53743;51.100;5.874;2022-08-05T04:34:10;61.22;38.27;73.68;;
73638;Laerm;53743;51.100;5.874;2022-08-05T04:35:10;61.05;36.51;77.69;;
73638;Laerm;53743;51.100;5.874;2022-08-05T04:36:11;60.15;37.55;74.71;;
73638;Laerm;53743;51.100;5.874;2022-08-05T04:37:13;57.45;35.93;73.28;;
73638;Laerm;53743;51.100;5.874;2022-08-05T04:38:14;64.48;37.86;75.91;;
73638;Laerm;53743;51.100;5.874;2022-08-05T04:39:14;54.87;34.03;69.98;;
73638;Laerm;53743;51.100;5.874;2022-08-05T04:40:15;61.87;34.10;73.48;;
73638;Laerm;53743;51.100;5.874;2022-08-05T04:41:16;58.79;33.51;72.89;;
73638;Laerm;53743;51.100;5.874;2022-08-05T04:42:16;55.93;32.99;70.93;;
73638;Laerm;53743;51.100;5.874;2022-08-05T04:43:17;59.50;36.89;70.15;;
73638;Laerm;53743;51.100;5.874;2022-08-05T04:44:18;63.82;41.54;76.46;;
73638;Laerm;53743;51.100;5.874;2022-08-05T04:45:19;58.71;39.53;73.48;;
73638;Laerm;53743;51.100;5.874;2022-08-05T04:46:20;63.73;40.71;73.64;;
73638;Laerm;53743;51.100;5.874;2022-08-05T04:47:21;56.58;35.01;73.39;;
73638;Laerm;53743;51.100;5.874;2022-08-05T04:48:22;60.34;40.55;74.68;;
73638;Laerm;53743;51.100;5.874;2022-08-05T04:49:23;59.53;34.51;77.82;;
73638;Laerm;53743;51.100;5.874;2022-08-05T04:50:23;62.51;41.38;76.62;;
73638;Laerm;53743;51.100;5.874;2022-08-05T04:51:24;61.96;36.41;77.01;;
73638;Laerm;53743;51.100;5.874;2022-08-05T04:52:25;60.05;42.15;74.56;;
73638;Laerm;53743;51.100;5.874;2022-08-05T04:53:26;59.32;37.46;73.90;;
73638;Laerm;53743;51.100;5.874;2022-08-05T04:54:27;41.58;34.41;53.14;;
73638;Laerm;53743;51.100;5.874;2022-08-05T04:55:27;63.22;37.76;74.40;;
73638;Laerm;53743;51.100;5.874;2022-08-05T04:56:28;38.43;34.44;45.49;;
73638;Laerm;53743;51.100;5.874;2022-08-05T04:57:29;62.15;40.40;72.49;;
73638;Laerm;53743;51.100;5.874;2022-08-05T04:58:29;60.17;37.77;71.27;;
73638;Laerm;53743;51.100;5.874;2022-08-05T04:59:30;59.58;36.55;72.66;;
73638;Laerm;53743;51.100;5.874;2022-08-05T05:00:32;60.31;36.15;73.60;;
73638;Laerm;53743;51.100;5.874;2022-08-05T05:01:33;62.86;40.81;74.44;;
73638;Laerm;53743;51.100;5.874;2022-08-05T05:02:34;57.92;37.48;73.93;;
73638;Laerm;53743;51.100;5.874;2022-08-05T05:03:34;62.91;44.48;78.60;;
73638;Laerm;53743;51.100;5.874;2022-08-05T05:04:35;60.05;34.68;73.24;;
73638;Laerm;53743;51.100;5.874;2022-08-05T05:05:37;60.28;36.61;71.78;;
73638;Laerm;53743;51.100;5.874;2022-08-05T05:06:38;62.24;35.26;78.06;;
73638;Laerm;53743;51.100;5.874;2022-08-05T05:07:38;61.06;36.52;75.52;;
73638;Laerm;53743;51.100;5.874;2022-08-05T05:08:39;59.81;35.32;75.80;;
73638;Laerm;53743;51.100;5.874;2022-08-05T05:09:40;57.73;36.44;69.73;;
73638;Laerm;53743;51.100;5.874;2022-08-05T05:10:44;61.32;36.34;71.94;;
73638;Laerm;53743;51.100;5.874;2022-08-05T05:11:46;58.94;35.56;76.35;;
73638;Laerm;53743;51.100;5.874;2022-08-05T05:12:46;61.34;38.78;75.97;;
73638;Laerm;53743;51.100;5.874;2022-08-05T05:13:47;60.94;43.13;71.04;;
73638;Laerm;53743;51.100;5.874;2022-08-05T05:14:48;60.74;41.99;70.57;;
73638;Laerm;53743;51.100;5.874;2022-08-05T05:15:48;63.59;38.22;75.49;;
73638;Laerm;53743;51.100;5.874;2022-08-05T05:16:49;62.21;40.90;75.14;;
73638;Laerm;53743;51.100;5.874;2022-08-05T05:17:49;62.09;40.72;73.61;;
73638;Laerm;53743;51.100;5.874;2022-08-05T05:18:50;58.50;38.00;70.69;;
73638;Laerm;53743;51.100;5.874;2022-08-05T05:19:54;61.58;40.30;73.07;;
73638;Laerm;53743;51.100;5.874;2022-08-05T05:20:54;65.94;41.66;77.23;;
73638;Laerm;53743;51.100;5.874;2022-08-05T05:21:55;42.35;33.80;54.87;;
73638;Laerm;53743;51.100;5.874;2022-08-05T05:23:01;63.05;36.49;76.00;;
73638;Laerm;53743;51.100;5.874;2022-08-05T05:24:05;61.73;36.11;76.13;;
73638;Laerm;53743;51.100;5.874;2022-08-05T05:25:08;52.55;35.38;67.18;;
73638;Laerm;53743;51.100;5.874;2022-08-05T05:26:08;62.63;37.44;76.69;;
73638;Laerm;53743;51.100;5.874;2022-08-05T05:27:09;60.59;35.02;72.80;;
73638;Laerm;53743;51.100;5.874;2022-08-05T05:28:11;60.04;35.56;72.68;;
73638;Laerm;53743;51.100;5.874;2022-08-05T05:29:11;59.78;35.03;76.48;;
73638;Laerm;53743;51.100;5.874;2022-08-05T05:30:14;56.25;34.90;71.74;;
73638;Laerm;53743;51.100;5.874;2022-08-05T05:31:15;54.88;35.83;69.56;;
73638;Laerm;53743;51.100;5.874;2022-08-05T05:32:16;61.93;48.11;71.36;;
73638;Laerm;53743;51.100;5.874;2022-08-05T05:33:16;66.61;40.04;78.26;;
73638;Laerm;53743;51.100;5.874;2022-08-05T05:34:17;63.89;42.15;78.13;;
73638;Laerm;53743;51.100;5.874;2022-08-05T05:35:18;59.35;35.62;71.26;;
73638;Laerm;53743;51.100;5.874;2022-08-05T05:36:21;58.73;35.25;72.92;;
73638;Laerm;53743;51.100;5.874;2022-08-05T05:37:22;58.88;36.52;70.08;;
73638;Laerm;53743;51.100;5.874;2022-08-05T05:38:23;64.88;37.26;75.26;;
73638;Laerm;53743;51.100;5.874;2022-08-05T05:39:23;65.72;36.62;78.06;;
73638;Laerm;53743;51.100;5.874;2022-08-05T05:40:26;59.01;38.95;70.17;;
73638;Laerm;53743;51.100;5.874;2022-08-05T05:41:27;62.14;36.37;77.22;;
73638;Laerm;53743;51.100;5.874;2022-08-05T05:42:27;62.69;39.10;76.04;;
73638;Laerm;53743;51.100;5.874;2022-08-05T05:43:28;63.58;39.02;78.24;;
73638;Laerm;53743;51.100;5.874;2022-08-05T05:44:28;63.69;42.82;79.52;;
73638;Laerm;53743;51.100;5.874;2022-08-05T05:45:29;60.70;37.69;75.04;;
73638;Laerm;53743;51.100;5.874;2022-08-05T05:46:30;57.90;36.59;70.69;;
73638;Laerm;53743;51.100;5.874;2022-08-05T05:47:31;61.87;37.53;77.04;;
73638;Laerm;53743;51.100;5.874;2022-08-05T05:48:31;58.51;37.15;78.75;;
73638;Laerm;53743;51.100;5.874;2022-08-05T05:49:33;66.74;49.67;74.79;;
73638;Laerm;53743;51.100;5.874;2022-08-05T05:50:35;65.52;52.84;76.79;;
73638;Laerm;53743;51.100;5.874;2022-08-05T05:51:35;67.14;55.18;77.33;;
73638;Laerm;53743;51.100;5.874;2022-08-05T05:52:36;64.02;47.23;72.65;;
73638;Laerm;53743;51.100;5.874;2022-08-05T05:53:37;61.46;40.89;73.71;;
73638;Laerm;53743;51.100;5.874;2022-08-05T05:54:37;63.85;37.90;76.11;;
73638;Laerm;53743;51.100;5.874;2022-08-05T05:55:38;60.87;37.42;74.58;;
73638;Laerm;53743;51.100;5.874;2022-08-05T05:56:39;63.57;43.09;75.08;;
73638;Laerm;53743;51.100;5.874;2022-08-05T05:57:42;65.86;44.99;75.63;;
73638;Laerm;53743;51.100;5.874;2022-08-05T05:58:43;64.79;39.23;76.85;;
73638;Laerm;53743;51.100;5.874;2022-08-05T05:59:47;57.00;35.98;70.63;;